createdAt,value
2017-11-25T04:31:39.732Z,7.80
2017-11-25T04:34:07.352Z,7.80
2017-11-25T04:36:34.926Z,7.90
2017-11-25T04:39:02.531Z,7.90
2017-11-25T04:41:30.126Z,8.10
2017-11-25T04:43:57.793Z,8.10
2017-11-25T04:46:25.375Z,8.20
2017-11-25T04:48:53.715Z,8.10
2017-11-25T04:51:21.410Z,8.10
2017-11-25T04:53:49.755Z,8.00
2017-11-25T04:56:17.337Z,8.00
2017-11-25T04:58:44.935Z,8.00
2017-11-25T05:01:12.511Z,7.90
2017-11-25T05:03:40.160Z,7.90
2017-11-25T05:06:07.738Z,7.90
2017-11-25T05:08:35.315Z,7.80
2017-11-25T05:11:02.935Z,7.80
2017-11-25T05:13:30.507Z,7.90
2017-11-25T05:15:58.088Z,7.90
2017-11-25T05:18:25.686Z,7.90
2017-11-25T05:20:54.031Z,8.10
2017-11-25T05:23:21.634Z,8.20
2017-11-25T05:25:49.207Z,8.30
2017-11-25T05:28:16.782Z,8.30
2017-11-25T05:30:44.409Z,8.20
2017-11-25T05:33:11.983Z,8.10
2017-11-25T05:35:39.565Z,8.00
2017-11-25T05:38:07.168Z,7.90
2017-11-25T05:40:35.510Z,7.90
2017-11-25T05:43:03.116Z,7.90
2017-11-25T05:45:30.719Z,8.00
2017-11-25T05:47:58.298Z,8.00
2017-11-25T05:50:25.875Z,7.80
2017-11-25T05:52:54.252Z,7.70
2017-11-25T05:55:22.599Z,7.80
2017-11-25T05:57:50.176Z,7.80
2017-11-25T06:00:17.808Z,7.90
2017-11-25T06:02:45.383Z,7.80
2017-11-25T06:05:12.959Z,7.70
2017-11-25T06:07:40.562Z,7.70
2017-11-25T06:10:08.144Z,7.70
2017-11-25T06:12:37.274Z,7.80
2017-11-25T06:15:05.616Z,7.90
2017-11-25T06:17:33.190Z,7.80
2017-11-25T06:20:00.795Z,7.80
2017-11-25T06:22:28.370Z,7.70
2017-11-25T06:24:55.947Z,7.80
2017-11-25T06:27:23.575Z,7.70
2017-11-25T06:29:51.159Z,7.70
2017-11-25T06:32:18.738Z,7.70
2017-11-25T06:34:46.338Z,7.70
2017-11-25T06:37:13.914Z,7.70
2017-11-25T06:39:41.514Z,7.80
2017-11-25T06:42:09.093Z,7.90
2017-11-25T06:44:36.736Z,8.00
2017-11-25T06:47:04.327Z,8.00
2017-11-25T06:49:32.671Z,8.10
2017-11-25T06:52:00.275Z,8.10
2017-11-25T06:54:27.854Z,8.10
2017-11-25T06:56:55.431Z,8.10
2017-11-25T06:59:23.027Z,8.10
2017-11-25T07:01:51.376Z,8.00
2017-11-25T07:04:19.003Z,8.00
2017-11-25T07:06:46.577Z,8.10
2017-11-25T07:09:14.155Z,8.10
2017-11-25T07:11:41.759Z,8.00
2017-11-25T07:14:09.334Z,8.00
2017-11-25T07:16:36.950Z,8.00
2017-11-25T07:19:04.523Z,8.00
2017-11-25T07:21:32.870Z,7.90
2017-11-25T07:24:00.470Z,7.90
2017-11-25T07:26:28.043Z,8.00
2017-11-25T07:28:55.614Z,8.00
2017-11-25T07:31:23.248Z,8.00
2017-11-25T07:33:50.823Z,8.00
2017-11-25T07:36:18.414Z,8.10
2017-11-25T07:38:46.039Z,8.10
2017-11-25T07:41:13.615Z,8.00
2017-11-25T07:43:41.186Z,7.90
2017-11-25T07:46:08.808Z,7.90
2017-11-25T07:48:36.381Z,7.90
2017-11-25T07:51:03.962Z,7.90
2017-11-25T07:53:31.559Z,7.80
2017-11-25T07:55:59.904Z,7.80
2017-11-25T07:58:27.522Z,7.80
2017-11-25T08:00:55.103Z,7.80
2017-11-25T08:03:22.674Z,8.00
2017-11-25T08:05:50.281Z,7.90
2017-11-25T08:08:17.861Z,8.00
2017-11-25T08:10:45.503Z,7.90
2017-11-25T08:13:14.040Z,8.00
2017-11-25T08:15:41.787Z,8.00
2017-11-25T08:18:09.431Z,8.00
2017-11-25T08:20:37.015Z,8.00
2017-11-25T08:23:04.694Z,8.10
2017-11-25T08:25:33.063Z,7.90
2017-11-25T08:28:00.648Z,7.90
2017-11-25T08:30:28.990Z,7.90
2017-11-25T08:32:56.590Z,7.90
2017-11-25T08:35:24.931Z,7.80
2017-11-25T08:37:52.566Z,7.80
2017-11-25T08:40:20.542Z,7.70
2017-11-25T08:42:48.148Z,7.80
2017-11-25T08:45:15.783Z,7.80
2017-11-25T08:47:43.364Z,7.80
2017-11-25T08:50:11.712Z,7.70
2017-11-25T08:52:39.330Z,7.70
2017-11-25T08:55:06.923Z,7.70
2017-11-25T08:57:34.500Z,7.60
2017-11-25T09:00:03.602Z,7.60
2017-11-25T09:02:31.260Z,7.60
2017-11-25T09:04:59.603Z,7.70
2017-11-25T09:07:27.182Z,7.70
2017-11-25T09:09:54.783Z,7.60
2017-11-25T09:12:22.538Z,7.60
2017-11-25T09:14:51.432Z,7.60
2017-11-25T09:17:19.042Z,7.60
2017-11-25T09:19:46.625Z,7.60
2017-11-25T09:22:14.407Z,7.60
2017-11-25T09:24:42.747Z,7.60
2017-11-25T09:27:10.322Z,7.60
2017-11-25T09:29:38.719Z,7.60
2017-11-25T09:32:07.063Z,7.70
2017-11-25T09:34:34.645Z,7.60
2017-11-25T09:37:03.022Z,7.60
2017-11-25T09:39:30.603Z,7.60
2017-11-25T09:41:58.254Z,7.70
2017-11-25T09:44:26.607Z,7.70
2017-11-25T09:46:55.055Z,7.70
2017-11-25T09:49:22.711Z,7.70
2017-11-25T09:51:50.303Z,7.70
2017-11-25T09:54:17.899Z,7.60
2017-11-25T09:56:45.531Z,7.60
2017-11-25T09:59:13.111Z,7.60
2017-11-25T10:01:40.811Z,7.70
2017-11-25T10:04:08.432Z,7.70
2017-11-25T10:06:36.006Z,7.60
2017-11-25T10:09:03.696Z,7.60
2017-11-25T10:11:31.351Z,7.60
2017-11-25T10:13:58.928Z,7.60
2017-11-25T10:16:26.544Z,7.60
2017-11-25T10:18:54.124Z,7.40
2017-11-25T10:21:21.694Z,7.40
2017-11-25T10:23:49.332Z,7.40
2017-11-25T10:26:16.907Z,7.30
2017-11-25T10:28:44.548Z,7.40
2017-11-25T10:31:12.119Z,7.30
2017-11-25T10:33:39.692Z,7.30
2017-11-25T10:36:07.308Z,7.20
2017-11-25T10:38:34.883Z,7.20
2017-11-25T10:41:02.457Z,7.20
2017-11-25T10:43:30.071Z,7.20
2017-11-25T10:45:58.415Z,7.00
2017-11-25T10:48:25.986Z,7.00
2017-11-25T10:50:53.603Z,7.00
2017-11-25T10:53:21.183Z,7.10
2017-11-25T10:55:48.759Z,7.00
2017-11-25T10:58:16.375Z,7.00
2017-11-25T11:00:43.958Z,7.00
2017-11-25T11:03:11.535Z,7.00
2017-11-25T11:05:39.136Z,7.00
2017-11-25T11:08:06.735Z,7.00
2017-11-25T11:10:34.338Z,7.00
2017-11-25T11:13:02.681Z,7.00
2017-11-25T11:15:30.278Z,6.90
2017-11-25T11:17:58.668Z,7.00
2017-11-25T11:20:26.243Z,7.00
2017-11-25T11:22:53.911Z,7.00
2017-11-25T11:25:22.319Z,7.00
2017-11-25T11:27:49.912Z,6.90
2017-11-25T11:30:18.251Z,6.80
2017-11-25T11:32:45.956Z,6.80
2017-11-25T11:35:13.531Z,6.70
2017-11-25T11:37:41.110Z,6.70
2017-11-25T11:40:08.706Z,6.70
2017-11-25T11:42:36.326Z,6.70
2017-11-25T11:45:03.903Z,6.60
2017-11-25T11:47:31.475Z,6.60
2017-11-25T11:49:59.126Z,6.60
2017-11-25T11:52:26.698Z,6.60
2017-11-25T11:54:54.321Z,6.50
2017-11-25T11:57:21.920Z,6.50
2017-11-25T11:59:49.523Z,6.50
2017-11-25T12:02:17.094Z,6.50
2017-11-25T12:04:44.701Z,6.50
2017-11-25T12:07:13.054Z,6.50
2017-11-25T12:09:40.626Z,6.50
2017-11-25T12:12:08.277Z,6.50
2017-11-25T12:14:35.858Z,6.60
2017-11-25T12:17:04.199Z,6.70
2017-11-25T12:19:31.818Z,6.70
2017-11-25T12:21:59.391Z,6.70
2017-11-25T12:24:26.980Z,6.70
2017-11-25T12:26:55.369Z,6.70
2017-11-25T12:29:23.758Z,6.60
2017-11-25T12:31:53.256Z,6.60
2017-11-25T12:34:20.983Z,6.60
2017-11-25T12:36:48.559Z,6.60
2017-11-25T12:39:16.135Z,6.60
2017-11-25T12:41:43.739Z,6.50
2017-11-25T12:44:11.312Z,6.50
2017-11-25T12:46:38.943Z,6.50
2017-11-25T12:49:06.519Z,6.50
2017-11-25T12:51:34.100Z,6.60
2017-11-25T12:54:01.747Z,6.60
2017-11-25T12:56:29.323Z,6.50
2017-11-25T12:58:56.898Z,6.40
2017-11-25T13:01:24.502Z,6.30
2017-11-25T13:03:52.076Z,6.30
2017-11-25T13:06:19.848Z,6.30
2017-11-25T13:08:47.443Z,6.30
2017-11-25T13:11:15.028Z,6.30
2017-11-25T13:13:43.409Z,6.30
2017-11-25T13:16:11.747Z,6.30
2017-11-25T13:18:39.322Z,6.30
2017-11-25T13:21:07.711Z,6.40
2017-11-25T13:23:36.049Z,6.30
2017-11-25T13:26:03.622Z,6.30
2017-11-25T13:28:31.227Z,6.30
2017-11-25T13:30:58.807Z,6.40
2017-11-25T13:33:26.403Z,6.50
2017-11-25T13:35:53.975Z,6.60
2017-11-25T13:38:22.314Z,6.50
2017-11-25T13:40:49.919Z,6.50
2017-11-25T13:43:18.263Z,6.30
2017-11-25T13:45:45.883Z,6.30
2017-11-25T13:48:13.458Z,6.30
2017-11-25T13:50:41.043Z,6.30
2017-11-25T13:53:08.659Z,6.30
2017-11-25T13:55:36.243Z,6.40
2017-11-25T13:58:03.825Z,6.40
2017-11-25T14:00:31.425Z,6.30
2017-11-25T14:02:59.011Z,6.30
2017-11-25T14:05:26.608Z,6.40
2017-11-25T14:07:54.215Z,6.30
2017-11-25T14:10:21.799Z,6.30
2017-11-25T14:12:49.402Z,6.30
2017-11-25T14:15:17.742Z,6.30
2017-11-25T14:17:45.315Z,6.30
2017-11-25T14:20:12.935Z,6.40
2017-11-25T14:22:40.510Z,6.50
2017-11-25T14:25:08.083Z,6.40
2017-11-25T14:27:35.691Z,6.20
2017-11-25T14:30:03.282Z,6.30
2017-11-25T14:32:30.955Z,6.20
2017-11-25T14:34:58.548Z,6.20
2017-11-25T14:37:26.891Z,6.30
2017-11-25T14:39:54.497Z,6.30
2017-11-25T14:42:22.082Z,6.40
2017-11-25T14:44:49.673Z,6.30
2017-11-25T14:47:17.286Z,6.30
2017-11-25T14:49:44.868Z,6.40
2017-11-25T14:52:12.502Z,6.30
2017-11-25T14:54:40.083Z,6.30
2017-11-25T14:57:07.662Z,6.30
2017-11-25T14:59:35.266Z,6.30
2017-11-25T15:02:02.861Z,6.20
2017-11-25T15:04:30.487Z,6.20
2017-11-25T15:06:58.071Z,6.10
2017-11-25T15:09:25.654Z,6.10
2017-11-25T15:11:53.287Z,5.80
2017-11-25T15:14:20.863Z,5.40
2017-11-25T15:16:48.435Z,5.00
2017-11-25T15:19:16.036Z,4.80
2017-11-25T15:21:44.383Z,4.60
2017-11-25T15:24:11.999Z,4.50
2017-11-25T15:26:39.583Z,4.50
2017-11-25T15:29:07.183Z,4.50
2017-11-25T15:31:35.570Z,4.30
2017-11-25T15:34:03.910Z,4.30
2017-11-25T15:36:31.487Z,4.20
2017-11-25T15:38:59.876Z,4.10
2017-11-25T15:41:28.227Z,4.10
2017-11-25T15:43:55.798Z,4.10
2017-11-25T15:46:23.403Z,4.10
2017-11-25T15:48:50.983Z,4.00
2017-11-25T15:51:18.608Z,3.70
2017-11-25T15:53:46.191Z,3.50
2017-11-25T15:56:13.771Z,3.30
2017-11-25T15:58:41.401Z,3.20
2017-11-25T16:01:08.999Z,3.20
2017-11-25T16:03:36.583Z,3.20
2017-11-25T16:06:04.981Z,3.20
2017-11-25T16:08:32.562Z,3.20
2017-11-25T16:11:00.156Z,3.30
2017-11-25T16:13:27.785Z,3.40
2017-11-25T16:15:55.367Z,3.40
2017-11-25T16:18:22.944Z,3.40
2017-11-25T16:20:51.339Z,3.30
2017-11-25T16:23:19.678Z,3.30
2017-11-25T16:25:47.256Z,3.30
2017-11-25T16:28:15.719Z,3.20
2017-11-25T16:30:43.333Z,3.20
2017-11-25T16:33:10.961Z,3.10
2017-11-25T16:35:39.316Z,3.10
2017-11-25T16:38:06.907Z,3.10
2017-11-25T16:40:35.288Z,3.20
2017-11-25T16:43:02.862Z,3.10
2017-11-25T16:45:30.435Z,3.10
2017-11-25T16:48:09.984Z,3.00
2017-11-25T16:50:37.563Z,2.90
2017-11-25T16:53:05.163Z,3.00
2017-11-25T16:55:32.748Z,2.90
2017-11-25T16:58:00.350Z,2.90
2017-11-25T17:00:27.931Z,2.90
2017-11-25T17:02:56.353Z,2.90
2017-11-25T17:05:23.927Z,2.90
2017-11-25T17:07:51.507Z,2.80
2017-11-25T17:10:19.115Z,2.80
2017-11-25T17:12:46.691Z,2.80
2017-11-25T17:15:14.320Z,2.80
2017-11-25T17:17:42.010Z,2.70
2017-11-25T17:20:09.583Z,2.70
2017-11-25T17:22:37.203Z,2.70
2017-11-25T17:25:04.783Z,2.70
2017-11-25T17:27:32.355Z,2.70
2017-11-25T17:29:59.958Z,2.70
2017-11-25T17:32:28.322Z,2.70
2017-11-25T17:34:56.687Z,2.70
2017-11-25T17:37:25.040Z,2.60
2017-11-25T17:39:52.667Z,2.60
2017-11-25T17:42:20.248Z,2.60
2017-11-25T17:44:47.835Z,2.60
2017-11-25T17:47:15.567Z,2.60
2017-11-25T17:49:43.146Z,2.60
2017-11-25T17:52:10.723Z,2.60
2017-11-25T17:54:38.315Z,2.60
2017-11-25T17:57:05.924Z,2.60
2017-11-25T17:59:33.698Z,2.60
2017-11-25T18:02:01.275Z,2.70
2017-11-25T18:04:29.619Z,2.60
2017-11-25T18:06:57.219Z,2.60
2017-11-25T18:09:25.583Z,2.50
2017-11-25T18:11:53.972Z,2.50
2017-11-25T18:14:22.318Z,2.50
2017-11-25T18:16:49.906Z,2.50
2017-11-25T18:19:18.295Z,2.30
2017-11-25T18:21:45.872Z,2.30
2017-11-25T18:24:13.451Z,2.30
2017-11-25T18:26:41.179Z,2.30
2017-11-25T18:29:09.189Z,2.20
2017-11-25T18:31:37.576Z,2.10
2017-11-25T18:34:05.180Z,2.10
2017-11-25T18:36:32.759Z,2.10
2017-11-25T18:39:00.343Z,2.20
2017-11-25T18:41:28.728Z,2.20
2017-11-25T18:43:56.550Z,2.10
2017-11-25T18:46:24.172Z,2.10
2017-11-25T18:48:51.755Z,2.10
2017-11-25T18:51:19.336Z,2.10
2017-11-25T18:53:47.259Z,2.00
2017-11-25T18:56:15.073Z,2.10
2017-11-25T18:58:42.666Z,2.00
2017-11-25T19:01:10.290Z,2.00
2017-11-25T19:03:37.863Z,2.10
2017-11-25T19:06:05.441Z,2.00
2017-11-25T19:08:33.047Z,2.10
2017-11-25T19:11:00.832Z,2.10
2017-11-25T19:13:28.432Z,2.10
2017-11-25T19:15:56.055Z,2.10
2017-11-25T19:18:23.627Z,2.10
2017-11-25T19:20:51.208Z,2.10
2017-11-25T19:23:18.819Z,2.10
2017-11-25T19:25:46.392Z,2.10
2017-11-25T19:28:13.963Z,2.10
2017-11-25T19:30:41.571Z,2.10
2017-11-25T19:33:09.916Z,2.00
2017-11-25T19:35:37.495Z,2.00
2017-11-25T19:38:05.863Z,2.10
2017-11-25T19:40:33.463Z,2.10
2017-11-25T19:43:01.042Z,2.20
2017-11-25T19:45:28.667Z,2.10
2017-11-25T19:47:56.255Z,2.00
2017-11-25T19:50:23.827Z,2.10
2017-11-25T19:52:51.423Z,2.10
2017-11-25T19:55:19.786Z,2.10
2017-11-25T19:57:47.367Z,2.10
2017-11-25T20:00:14.954Z,2.00
2017-11-25T20:02:42.582Z,2.00
2017-11-25T20:05:10.918Z,1.90
2017-11-25T20:07:38.494Z,1.90
2017-11-25T20:10:07.602Z,1.90
2017-11-25T20:12:35.182Z,1.90
2017-11-25T20:15:03.192Z,1.90
2017-11-25T20:17:30.808Z,2.00
2017-11-25T20:19:59.532Z,2.20
2017-11-25T20:22:27.182Z,2.20
2017-11-25T20:24:55.301Z,2.20
2017-11-25T20:27:22.947Z,2.30
2017-11-25T20:29:50.562Z,2.20
2017-11-25T20:32:18.450Z,2.30
2017-11-25T20:34:46.109Z,2.20
2017-11-25T20:37:13.715Z,2.20
2017-11-25T20:39:42.067Z,2.10
2017-11-25T20:42:10.013Z,2.10
2017-11-25T20:44:39.168Z,2.10
2017-11-25T20:47:06.795Z,2.10
2017-11-25T20:49:35.203Z,2.00
2017-11-25T20:52:03.565Z,2.00
2017-11-25T20:54:31.256Z,2.00
2017-11-25T20:56:59.527Z,2.00
2017-11-25T20:59:27.111Z,1.90
2017-11-25T21:01:54.738Z,2.00
2017-11-25T21:04:23.079Z,2.10
2017-11-25T21:06:52.166Z,2.00
2017-11-25T21:09:19.795Z,2.00
2017-11-25T21:11:47.376Z,1.90
2017-11-25T21:14:14.960Z,1.80
2017-11-25T21:16:42.567Z,1.80
2017-11-25T21:19:10.147Z,1.80
2017-11-25T21:21:37.724Z,1.80
2017-11-25T21:24:06.239Z,1.90
2017-11-25T21:26:34.591Z,2.00
2017-11-25T21:29:02.940Z,1.90
2017-11-25T21:31:30.546Z,1.90
2017-11-25T21:33:58.882Z,2.10
2017-11-25T21:36:26.502Z,2.00
2017-11-25T21:38:54.078Z,2.10
2017-11-25T21:41:21.658Z,2.20
2017-11-25T21:43:49.301Z,2.10
2017-11-25T21:46:16.884Z,2.10
2017-11-25T21:48:44.462Z,2.10
2017-11-25T21:51:12.097Z,2.10
2017-11-25T21:53:39.694Z,2.20
2017-11-25T21:56:08.047Z,2.10
2017-11-25T21:58:35.675Z,2.10
2017-11-25T22:01:03.260Z,2.20
2017-11-25T22:03:30.849Z,2.10
2017-11-25T22:05:59.223Z,2.00
2017-11-25T22:08:27.594Z,2.00
2017-11-25T22:10:55.943Z,1.90
2017-11-25T22:13:23.567Z,1.90
2017-11-25T22:15:51.148Z,1.80
2017-11-25T22:18:18.734Z,1.80
2017-11-25T22:20:46.355Z,1.70
2017-11-25T22:23:13.935Z,1.70
2017-11-25T22:25:41.518Z,1.60
2017-11-25T22:28:09.114Z,1.70
2017-11-25T22:30:36.695Z,1.70
2017-11-25T22:33:04.307Z,1.80
2017-11-25T22:35:32.653Z,1.90
2017-11-25T22:38:00.233Z,1.90
2017-11-25T22:40:28.614Z,1.90
2017-11-25T22:42:56.955Z,1.90
2017-11-25T22:45:24.540Z,1.90
2017-11-25T22:47:52.151Z,2.00
2017-11-25T22:50:19.755Z,2.00
2017-11-25T22:52:47.391Z,2.00
2017-11-25T22:55:14.967Z,1.90
2017-11-25T22:57:42.551Z,1.90
2017-11-25T23:00:10.923Z,1.90
2017-11-25T23:02:39.284Z,1.80
2017-11-25T23:05:06.861Z,1.80
2017-11-25T23:07:35.227Z,1.80
2017-11-25T23:10:02.838Z,1.80
2017-11-25T23:12:30.419Z,1.80
2017-11-25T23:14:58.028Z,1.70
2017-11-25T23:17:26.391Z,1.80
2017-11-25T23:19:54.734Z,1.60
2017-11-25T23:22:22.353Z,1.60
2017-11-25T23:24:49.932Z,1.60
2017-11-25T23:27:17.522Z,1.50
2017-11-25T23:29:45.146Z,1.30
